Time;durP1;ratioP1;P1;durP2;ratioP2;P2;SDS_P1;SDS_P2;PMS_P1;PMS_P2;Temp;Humidity;BMP_temperature;BMP_pressure;BME280_temperature;BME280_humidity;BME280_pressure;Samples;Min_cycle;Max_cycle;Signal;HPM_P1;HPM_P2
2021/09/25 00:01:02;;;;;;;16.52;11.40;;;;;;;17.24;75.24;101148.41;5054881;28;20068;-64
2021/09/25 00:03:30;;;;;;;13.65;11.02;;;;;;;16.95;76.87;101158.91;5054975;28;20060;-64
2021/09/25 00:05:57;;;;;;;18.38;11.20;;;;;;;17.07;76.35;101156.16;5053874;28;20060;-58
2021/09/25 00:08:24;;;;;;;16.90;13.18;;;;;;;17.35;76.05;101148.72;5053486;28;20065;-64
2021/09/25 00:10:52;;;;;;;17.67;12.73;;;;;;;17.51;74.88;101138.53;5054890;28;20049;-56
2021/09/25 00:13:20;;;;;;;17.08;11.13;;;;;;;17.56;75.04;101149.44;5054254;28;20061;-64
2021/09/25 00:15:47;;;;;;;15.05;12.13;;;;;;;17.84;74.73;101144.75;5054911;28;20049;-61
2021/09/25 00:18:14;;;;;;;17.00;11.52;;;;;;;17.90;74.24;101143.38;5054801;28;20053;-57
2021/09/25 00:20:42;;;;;;;15.85;11.85;;;;;;;17.85;73.28;101147.19;5054684;28;20049;-65
2021/09/25 00:23:09;;;;;;;15.10;10.98;;;;;;;17.93;74.06;101146.25;5054509;28;20522;-66
2021/09/25 00:25:37;;;;;;;13.90;10.52;;;;;;;17.97;73.41;101146.38;5054785;28;20049;-65
2021/09/25 00:28:04;;;;;;;16.88;11.82;;;;;;;17.95;73.31;101143.94;5047219;28;20069;-65
2021/09/25 00:30:32;;;;;;;16.42;11.88;;;;;;;17.87;73.39;101147.66;5033512;28;20528;-56
2021/09/25 00:32:59;;;;;;;20.00;12.32;;;;;;;17.86;73.84;101143.25;5034279;28;20353;-65
2021/09/25 00:35:27;;;;;;;15.40;12.13;;;;;;;17.92;73.98;101139.06;5032542;28;20060;-64
2021/09/25 00:37:54;;;;;;;19.10;12.63;;;;;;;17.64;73.61;101146.53;5034558;28;20081;-66
2021/09/25 00:40:21;;;;;;;18.02;11.70;;;;;;;17.28;75.00;101157.66;5049703;28;20059;-65
2021/09/25 00:42:48;;;;;;;16.88;11.88;;;;;;;17.35;75.18;101145.94;5054140;28;20045;-64
2021/09/25 00:45:18;;;;;;;16.35;12.02;;;;;;;17.46;75.22;101149.91;5054409;28;20053;-64
2021/09/25 00:47:47;;;;;;;13.43;11.20;;;;;;;17.44;74.57;101147.47;5053232;28;20053;-57
2021/09/25 00:50:15;;;;;;;16.05;11.50;;;;;;;17.36;74.71;101153.97;5054127;28;20067;-57
2021/09/25 00:52:42;;;;;;;16.42;12.15;;;;;;;17.31;76.20;101145.03;5052904;28;20049;-54
2021/09/25 00:55:10;;;;;;;16.33;11.55;;;;;;;17.29;75.13;101147.34;5054272;28;20076;-66
2021/09/25 00:57:39;;;;;;;17.83;12.25;;;;;;;17.30;75.37;101148.97;5053192;28;20079;-56
2021/09/25 01:00:07;;;;;;;15.07;11.25;;;;;;;17.45;75.85;101154.66;5053149;28;20060;-56
2021/09/25 01:02:35;;;;;;;15.30;11.38;;;;;;;17.56;75.26;101146.66;5054270;28;20060;-63
2021/09/25 01:05:04;;;;;;;15.32;11.43;;;;;;;17.60;74.81;101147.59;5052745;28;20049;-64
2021/09/25 01:07:31;;;;;;;18.83;12.02;;;;;;;17.43;74.95;101165.34;5054362;28;20049;-63
2021/09/25 01:09:58;;;;;;;17.45;12.43;;;;;;;17.35;74.81;101155.13;5054037;28;20460;-64
2021/09/25 01:12:26;;;;;;;17.38;12.82;;;;;;;17.34;74.61;101142.38;5052200;28;20090;-64
2021/09/25 01:14:53;;;;;;;17.83;13.13;;;;;;;17.32;75.41;101147.47;5052725;28;20045;-59
2021/09/25 01:17:21;;;;;;;18.83;13.43;;;;;;;17.10;76.08;101147.13;5052955;28;20045;-64
2021/09/25 01:19:48;;;;;;;17.95;13.50;;;;;;;16.92;76.23;101140.94;5054381;28;20049;-57
2021/09/25 01:22:16;;;;;;;17.88;13.23;;;;;;;17.05;76.69;101139.78;5054184;28;20045;-58
2021/09/25 01:24:43;;;;;;;20.40;13.50;;;;;;;16.96;76.96;101138.28;5053092;28;20059;-64
2021/09/25 01:27:10;;;;;;;19.65;13.23;;;;;;;17.12;76.70;101128.09;5053646;28;20054;-64
2021/09/25 01:29:37;;;;;;;20.27;13.48;;;;;;;17.02;76.25;101122.97;5039510;28;20041;-64
2021/09/25 01:32:05;;;;;;;19.77;13.63;;;;;;;17.15;77.00;101128.22;5033752;28;20057;-57
2021/09/25 01:34:34;;;;;;;20.20;13.80;;;;;;;17.28;76.67;101126.22;5034256;28;20046;-57
2021/09/25 01:37:02;;;;;;;18.23;14.32;;;;;;;17.41;76.44;101123.09;5032755;28;20053;-63
2021/09/25 01:39:31;;;;;;;20.05;12.93;;;;;;;17.37;75.58;101119.38;5041886;28;20044;-58
2021/09/25 01:41:59;;;;;;;20.00;13.15;;;;;;;17.39;75.52;101121.81;5053694;28;20432;-64
2021/09/25 01:44:27;;;;;;;18.55;13.70;;;;;;;17.37;75.33;101124.94;5053881;28;20053;-64
2021/09/25 01:46:56;;;;;;;17.67;13.70;;;;;;;17.33;76.23;101117.66;5054367;28;20053;-56
2021/09/25 01:49:44;;;;;;;16.95;13.20;;;;;;;17.45;76.22;101112.88;5056022;28;20057;-56
2021/09/25 01:52:11;;;;;;;15.32;13.15;;;;;;;17.55;75.99;101106.06;5057796;28;20049;-58
2021/09/25 01:54:39;;;;;;;17.80;13.18;;;;;;;16.95;76.60;101109.63;5057290;28;20492;-58
2021/09/25 01:57:06;;;;;;;22.20;14.45;;;;;;;17.15;76.96;101111.50;5056171;28;20052;-64
2021/09/25 01:59:34;;;;;;;19.98;14.05;;;;;;;17.34;76.70;101108.94;5056008;28;20049;-64
2021/09/25 02:02:06;;;;;;;15.88;12.43;;;;;;;17.36;76.54;101111.38;5056565;28;20049;-56
2021/09/25 02:04:35;;;;;;;17.95;13.05;;;;;;;17.31;76.11;101106.84;5057094;28;20071;-63
2021/09/25 02:07:04;;;;;;;20.98;13.70;;;;;;;17.21;75.94;101100.97;5057647;28;20680;-64
2021/09/25 02:09:32;;;;;;;20.13;14.02;;;;;;;17.05;75.84;101092.47;5057036;28;20480;-64
2021/09/25 02:11:59;;;;;;;18.88;13.85;;;;;;;16.69;77.46;101089.66;5055976;28;20053;-61
2021/09/25 02:14:26;;;;;;;18.52;13.65;;;;;;;16.89;78.84;101092.34;5055544;28;20056;-54
2021/09/25 02:16:53;;;;;;;15.85;13.18;;;;;;;17.13;77.97;101094.34;5057225;28;20053;-64
2021/09/25 02:19:21;;;;;;;17.67;13.07;;;;;;;17.06;77.17;101090.50;5055787;28;20053;-55
2021/09/25 02:21:49;;;;;;;20.75;14.55;;;;;;;16.93;76.90;101097.25;5055369;28;20060;-64
2021/09/25 02:24:17;;;;;;;17.65;12.80;;;;;;;16.91;77.13;101086.47;5055313;28;20060;-66
2021/09/25 02:26:44;;;;;;;21.00;14.15;;;;;;;16.59;77.63;101093.72;5056654;28;20045;-64
2021/09/25 02:29:11;;;;;;;19.05;14.52;;;;;;;16.59;79.54;101104.84;5056431;28;20053;-63
2021/09/25 02:31:39;;;;;;;18.73;13.43;;;;;;;16.89;78.71;101102.69;5021354;28;20046;-63
2021/09/25 02:34:06;;;;;;;20.95;12.93;;;;;;;16.78;77.41;101095.94;5032384;28;20062;-56
2021/09/25 02:36:34;;;;;;;18.45;14.73;;;;;;;16.91;78.33;101091.19;5031909;28;20458;-64
2021/09/25 02:39:01;;;;;;;18.85;13.40;;;;;;;17.00;77.64;101101.03;5027088;28;20515;-64
2021/09/25 02:41:29;;;;;;;18.42;14.20;;;;;;;16.80;78.16;101091.66;5056508;28;20060;-64
2021/09/25 02:43:56;;;;;;;19.90;13.50;;;;;;;16.62;78.49;101089.41;5056372;28;20055;-65
2021/09/25 02:46:23;;;;;;;20.05;14.57;;;;;;;16.23;79.12;101092.75;5056170;28;20052;-64
2021/09/25 02:48:51;;;;;;;17.67;13.80;;;;;;;16.41;80.04;101086.66;5056741;28;20494;-64
2021/09/25 02:51:18;;;;;;;22.23;14.48;;;;;;;16.26;79.78;101084.56;5056528;28;20049;-65
2021/09/25 02:53:45;;;;;;;19.42;13.13;;;;;;;16.49;79.38;101079.44;5038728;28;20056;-56
2021/09/25 02:56:13;;;;;;;23.27;13.55;;;;;;;16.53;79.40;101080.34;5056400;28;20155;-57
2021/09/25 02:58:40;;;;;;;16.85;12.73;;;;;;;16.75;79.17;101083.50;5054219;28;20059;-58
2021/09/25 03:01:07;;;;;;;20.70;14.20;;;;;;;16.80;79.04;101082.50;5056527;28;20491;-56
2021/09/25 03:03:35;;;;;;;19.20;13.32;;;;;;;16.56;77.90;101074.13;5055858;28;20052;-55
2021/09/25 03:06:02;;;;;;;19.00;13.38;;;;;;;16.51;78.02;101074.34;5056355;28;20407;-66
2021/09/25 03:08:30;;;;;;;16.08;13.15;;;;;;;16.37;79.42;101069.03;5056178;28;20048;-65
2021/09/25 03:10:57;;;;;;;17.33;13.23;;;;;;;16.42;78.71;101063.25;5054959;28;20063;-55
2021/09/25 03:13:24;;;;;;;19.80;13.27;;;;;;;16.57;79.36;101076.56;5055725;28;20472;-56
2021/09/25 03:15:51;;;;;;;18.63;13.65;;;;;;;16.52;78.39;101076.78;5056261;28;20052;-57
2021/09/25 03:18:19;;;;;;;19.85;14.35;;;;;;;16.32;78.27;101082.38;5054553;28;20057;-55
2021/09/25 03:20:46;;;;;;;17.17;13.05;;;;;;;16.36;78.74;101080.50;5056094;28;20041;-55
2021/09/25 03:23:13;;;;;;;19.20;14.23;;;;;;;16.36;78.84;101077.72;5056003;28;20053;-55
2021/09/25 03:25:40;;;;;;;22.08;13.48;;;;;;;16.25;78.61;101080.13;5037770;28;20052;-64
2021/09/25 03:28:08;;;;;;;17.45;13.63;;;;;;;16.41;79.14;101081.09;5054574;28;20053;-64
2021/09/25 03:30:35;;;;;;;19.08;13.05;;;;;;;16.40;79.18;101076.72;5048143;28;20498;-64
2021/09/25 03:33:03;;;;;;;19.00;12.73;;;;;;;16.39;78.98;101082.59;5035513;28;20057;-65
2021/09/25 03:35:31;;;;;;;16.70;12.55;;;;;;;16.40;78.30;101081.47;5035314;28;20401;-64
2021/09/25 03:38:00;;;;;;;18.10;12.93;;;;;;;16.49;78.76;101068.31;5018042;28;20535;-65
2021/09/25 03:40:28;;;;;;;19.10;14.38;;;;;;;16.04;79.19;101067.44;5050879;28;20056;-53
2021/09/25 03:42:55;;;;;;;18.15;13.13;;;;;;;16.30;79.90;101066.00;5037319;28;20500;-64
2021/09/25 03:45:23;;;;;;;17.92;13.55;;;;;;;16.31;78.88;101067.66;5053923;28;20068;-57
2021/09/25 03:47:55;;;;;;;18.58;13.65;;;;;;;16.34;78.53;101057.78;5055462;28;20052;-64
2021/09/25 03:50:22;;;;;;;18.33;14.02;;;;;;;16.36;79.12;101073.00;5055558;28;20088;-64
2021/09/25 03:52:49;;;;;;;19.88;14.77;;;;;;;16.56;79.18;101063.78;5055510;28;20048;-64
2021/09/25 03:55:16;;;;;;;18.00;12.77;;;;;;;16.56;78.43;101063.00;5054571;28;20057;-57
2021/09/25 03:57:44;;;;;;;17.88;13.15;;;;;;;16.41;78.18;101058.03;5054639;28;20053;-58
2021/09/25 04:00:11;;;;;;;18.83;13.77;;;;;;;16.11;79.17;101051.03;5055413;28;20060;-55
2021/09/25 04:02:38;;;;;;;20.80;13.35;;;;;;;16.05;80.35;101057.94;5055316;28;20501;-57
2021/09/25 04:05:07;;;;;;;16.60;12.68;;;;;;;16.23;80.25;101068.53;5053994;28;20056;-65
2021/09/25 04:07:34;;;;;;;20.27;12.77;;;;;;;16.38;79.98;101075.41;5054840;28;20049;-64
2021/09/25 04:10:02;;;;;;;17.90;13.38;;;;;;;16.26;79.75;101075.38;5055055;28;20047;-65
2021/09/25 04:12:29;;;;;;;15.65;12.10;;;;;;;16.42;80.09;101065.25;5054855;28;20389;-64
2021/09/25 04:14:56;;;;;;;17.83;13.27;;;;;;;16.27;78.50;101068.66;5052780;28;20399;-64
2021/09/25 04:17:24;;;;;;;20.55;12.70;;;;;;;16.20;79.16;101066.44;5054534;28;20113;-64
2021/09/25 04:19:51;;;;;;;21.05;12.68;;;;;;;16.32;78.58;101060.91;5053770;28;20049;-64
2021/09/25 04:22:18;;;;;;;17.42;13.05;;;;;;;16.13;78.29;101057.03;5053683;28;20056;-64
2021/09/25 04:24:45;;;;;;;15.52;12.63;;;;;;;16.12;79.18;101061.81;5054683;28;20530;-64
2021/09/25 04:27:13;;;;;;;19.85;13.60;;;;;;;16.08;78.86;101057.25;5053355;28;20056;-64
2021/09/25 04:29:40;;;;;;;16.92;12.65;;;;;;;16.20;79.13;101057.28;5054763;28;20496;-64
2021/09/25 04:32:07;;;;;;;16.92;12.98;;;;;;;16.20;79.07;101060.06;5038375;28;20053;-58
2021/09/25 04:34:34;;;;;;;17.38;12.95;;;;;;;16.18;78.99;101059.63;5034518;28;20049;-55
2021/09/25 04:37:02;;;;;;;17.08;12.50;;;;;;;16.15;79.42;101055.53;5017309;28;20060;-64
2021/09/25 04:39:30;;;;;;;16.85;12.73;;;;;;;16.10;79.12;101054.94;5043465;28;20155;-64
2021/09/25 04:41:57;;;;;;;19.00;13.52;;;;;;;15.62;80.46;101050.00;5054470;28;20056;-64
2021/09/25 04:44:24;;;;;;;18.92;13.20;;;;;;;15.68;80.47;101054.19;5053036;28;20542;-57
2021/09/25 04:46:52;;;;;;;20.95;13.88;;;;;;;15.63;80.59;101052.44;5054559;28;20052;-57
2021/09/25 04:49:19;;;;;;;20.33;13.35;;;;;;;15.92;81.70;101061.84;5054468;28;20045;-65
2021/09/25 04:51:46;;;;;;;18.75;13.55;;;;;;;16.03;79.85;101054.69;5053442;28;20049;-64
2021/09/25 04:54:13;;;;;;;15.90;12.23;;;;;;;16.06;79.85;101051.22;5054617;28;20044;-64
2021/09/25 04:56:41;;;;;;;19.38;14.48;;;;;;;16.04;79.36;101045.22;5054248;28;20063;-64
2021/09/25 04:59:08;;;;;;;15.32;12.32;;;;;;;16.12;79.86;101053.47;5020377;28;20064;-56
2021/09/25 05:01:35;;;;;;;21.80;13.77;;;;;;;15.89;79.77;101048.59;5054309;28;20052;-56
2021/09/25 05:04:04;;;;;;;19.60;13.23;;;;;;;16.09;79.71;101051.34;5053260;28;20041;-65
2021/09/25 05:06:31;;;;;;;20.35;12.90;;;;;;;15.97;79.00;101056.06;5052684;28;20437;-64
2021/09/25 05:08:59;;;;;;;20.70;13.32;;;;;;;16.07;79.70;101055.63;5054740;28;20052;-65
2021/09/25 05:11:26;;;;;;;18.33;12.98;;;;;;;16.22;79.07;101068.88;5052599;28;20475;-65
2021/09/25 05:13:54;;;;;;;18.30;12.55;;;;;;;16.18;78.67;101057.63;5054573;28;20503;-56
2021/09/25 05:16:21;;;;;;;20.08;13.20;;;;;;;15.99;79.84;101049.00;5053125;28;20041;-58
2021/09/25 05:18:48;;;;;;;16.88;13.13;;;;;;;15.92;79.14;101057.06;5053347;28;20511;-57
2021/09/25 05:21:16;;;;;;;16.35;12.93;;;;;;;16.03;79.70;101055.50;5056050;28;20124;-56
2021/09/25 05:23:43;;;;;;;17.90;13.52;;;;;;;16.06;79.17;101052.03;5058169;28;20052;-58
2021/09/25 05:26:10;;;;;;;19.52;13.80;;;;;;;16.08;78.80;101046.97;5056311;28;20060;-57
2021/09/25 05:28:38;;;;;;;23.77;14.35;;;;;;;16.01;78.50;101046.69;5058342;28;20079;-55
2021/09/25 05:31:06;;;;;;;19.30;14.05;;;;;;;15.89;79.52;101043.06;5058090;28;20044;-59
2021/09/25 05:33:33;;;;;;;19.52;14.95;;;;;;;15.81;80.02;101042.00;5028933;28;20058;-55
2021/09/25 05:36:00;;;;;;;26.80;15.40;;;;;;;15.58;80.25;101043.50;5033306;28;20061;-58
2021/09/25 05:38:28;;;;;;;19.50;14.60;;;;;;;15.64;81.59;101042.13;5019092;28;20049;-55
2021/09/25 05:40:55;;;;;;;19.75;14.18;;;;;;;15.68;81.18;101049.44;5058030;28;20044;-55
2021/09/25 05:43:22;;;;;;;18.52;14.52;;;;;;;16.04;81.12;101048.00;5057604;28;20080;-56
2021/09/25 05:45:50;;;;;;;19.25;14.18;;;;;;;15.90;80.18;101042.72;5057031;28;20058;-63
2021/09/25 05:48:17;;;;;;;30.35;15.02;;;;;;;15.55;80.60;101053.31;5056852;28;20053;-64
2021/09/25 05:50:45;;;;;;;24.25;15.07;;;;;;;15.57;80.78;101048.22;5056400;28;20742;-64
2021/09/25 05:53:12;;;;;;;23.85;15.55;;;;;;;15.51;81.52;101048.78;5057825;28;20398;-64
2021/09/25 05:55:40;;;;;;;22.13;14.18;;;;;;;15.78;81.93;101043.47;5057319;28;20147;-57
2021/09/25 05:58:07;;;;;;;20.23;14.43;;;;;;;15.77;80.47;101047.41;5057562;28;20060;-57
2021/09/25 06:00:35;;;;;;;18.35;13.90;;;;;;;15.87;80.83;101046.19;5057225;28;20061;-55
2021/09/25 06:03:07;;;;;;;21.00;15.20;;;;;;;15.69;81.11;101053.06;5056526;28;20056;-55
2021/09/25 06:05:35;;;;;;;20.77;14.02;;;;;;;15.85;80.95;101053.25;5057214;28;20044;-54
2021/09/25 06:08:03;;;;;;;22.48;15.05;;;;;;;15.62;80.11;101055.56;5057410;28;20498;-55
2021/09/25 06:10:31;;;;;;;22.05;15.43;;;;;;;15.35;81.86;101061.59;5057053;28;20056;-55
2021/09/25 06:12:59;;;;;;;18.83;15.05;;;;;;;15.52;81.77;101062.31;5056908;28;20059;-52
2021/09/25 06:15:26;;;;;;;20.08;15.48;;;;;;;15.64;80.63;101054.06;5050435;28;20050;-65
2021/09/25 06:17:54;;;;;;;23.95;16.00;;;;;;;16.02;80.56;101065.00;5033500;28;20064;-65
2021/09/25 06:20:21;;;;;;;23.02;15.43;;;;;;;15.83;80.15;101061.09;5036064;28;20074;-64
2021/09/25 06:22:49;;;;;;;22.50;15.15;;;;;;;15.92;79.51;101061.84;5036743;28;20692;-54
2021/09/25 06:25:16;;;;;;;21.65;14.55;;;;;;;15.65;79.58;101063.19;5036614;28;20600;-57
2021/09/25 06:27:43;;;;;;;24.75;15.50;;;;;;;15.39;80.32;101066.16;5036445;28;20042;-64
2021/09/25 06:30:11;;;;;;;22.65;16.55;;;;;;;15.60;80.75;101061.41;5035822;28;20049;-64
2021/09/25 06:32:38;;;;;;;20.90;15.52;;;;;;;15.89;80.98;101068.06;5035235;28;20057;-59
2021/09/25 06:35:07;;;;;;;21.65;14.85;;;;;;;15.88;80.06;101064.47;5035127;28;20045;-58
2021/09/25 06:37:34;;;;;;;20.00;14.75;;;;;;;15.73;80.08;101065.91;5036414;28;20045;-56
2021/09/25 06:40:03;;;;;;;20.73;15.38;;;;;;;16.03;79.92;101061.06;5021303;28;20048;-56
2021/09/25 06:42:30;;;;;;;21.48;15.50;;;;;;;16.10;78.95;101055.75;5036305;28;20475;-57
2021/09/25 06:44:57;;;;;;;24.75;17.52;;;;;;;16.26;78.76;101061.50;5034580;28;20492;-56
2021/09/25 06:47:24;;;;;;;23.63;17.30;;;;;;;16.36;78.76;101053.53;5036429;28;20049;-56
2021/09/25 06:49:52;;;;;;;22.13;16.17;;;;;;;16.17;78.83;101044.91;5036324;28;20060;-65
2021/09/25 06:52:19;;;;;;;23.42;16.45;;;;;;;15.97;78.95;101042.97;5035325;28;20524;-65
2021/09/25 06:54:46;;;;;;;22.50;16.55;;;;;;;16.06;79.31;101043.69;5036248;28;20060;-65
2021/09/25 06:57:13;;;;;;;21.55;15.02;;;;;;;16.22;79.11;101038.31;5036144;28;20052;-64
2021/09/25 06:59:41;;;;;;;23.88;18.17;;;;;;;16.23;78.93;101037.16;5034592;28;20061;-64
2021/09/25 07:02:08;;;;;;;32.00;23.00;;;;;;;16.34;78.74;101047.50;5036497;28;20052;-64
2021/09/25 07:04:36;;;;;;;27.98;19.80;;;;;;;16.28;78.73;101045.28;5036395;28;20057;-66
2021/09/25 07:07:04;;;;;;;24.27;17.33;;;;;;;16.23;78.32;101037.16;5034021;28;20052;-64
2021/09/25 07:09:31;;;;;;;28.38;17.73;;;;;;;16.15;78.56;101033.31;5025216;28;20056;-65
2021/09/25 07:11:58;;;;;;;21.48;16.98;;;;;;;16.37;78.69;101026.56;5035773;28;20056;-65
2021/09/25 07:14:26;;;;;;;22.55;16.42;;;;;;;16.60;77.75;101039.69;5035873;28;20053;-64
2021/09/25 07:16:53;;;;;;;21.42;16.60;;;;;;;16.47;78.09;101032.50;5035873;28;20061;-65
2021/09/25 07:19:20;;;;;;;21.73;17.33;;;;;;;16.74;77.84;101039.34;5036300;28;20412;-64
2021/09/25 07:21:47;;;;;;;26.73;17.67;;;;;;;16.83;77.09;101040.06;5035695;28;20057;-58
2021/09/25 07:24:15;;;;;;;26.20;18.40;;;;;;;16.75;76.68;101039.00;5034957;28;20528;-57
2021/09/25 07:26:42;;;;;;;22.25;17.30;;;;;;;16.61;77.28;101043.28;5035371;28;20049;-56
2021/09/25 07:29:09;;;;;;;24.90;18.52;;;;;;;16.75;77.41;101035.44;5035845;28;20393;-56
2021/09/25 07:31:37;;;;;;;24.73;18.40;;;;;;;16.79;77.02;101028.00;5035418;28;20057;-55
2021/09/25 07:34:04;;;;;;;22.77;18.17;;;;;;;16.93;76.44;101025.69;5036017;28;20049;-56
2021/09/25 07:36:31;;;;;;;30.08;20.33;;;;;;;16.43;76.67;101022.38;5034274;28;20076;-64
2021/09/25 07:38:59;;;;;;;32.25;20.60;;;;;;;16.10;78.62;101030.75;5040151;28;20041;-64
2021/09/25 07:41:26;;;;;;;29.00;20.27;;;;;;;16.60;78.70;101025.78;5054270;28;20424;-64
2021/09/25 07:43:53;;;;;;;27.42;19.85;;;;;;;16.89;77.12;101030.34;5053847;28;20411;-56
2021/09/25 07:46:21;;;;;;;28.27;19.90;;;;;;;16.93;76.22;101024.88;5054192;28;20056;-58
2021/09/25 07:48:48;;;;;;;31.27;21.05;;;;;;;17.16;75.81;101020.44;5054014;28;20047;-56
2021/09/25 07:51:16;;;;;;;34.13;21.40;;;;;;;17.27;75.46;101021.59;5054120;28;20053;-57
2021/09/25 07:53:43;;;;;;;29.05;21.52;;;;;;;16.76;75.52;101007.25;5053336;28;20119;-65
2021/09/25 07:56:10;;;;;;;27.77;22.45;;;;;;;16.34;77.92;101016.91;5035494;28;20046;-56
2021/09/25 07:58:37;;;;;;;28.35;21.40;;;;;;;16.34;78.66;101013.31;5035180;28;20049;-53
2021/09/25 08:01:05;;;;;;;31.50;22.20;;;;;;;16.42;78.81;101015.19;5035454;28;20094;-55
2021/09/25 08:03:32;;;;;;;29.70;22.60;;;;;;;16.60;78.04;101014.66;5033636;28;20053;-58
2021/09/25 08:06:00;;;;;;;28.25;22.20;;;;;;;16.97;78.29;101023.81;5035182;28;20045;-57
2021/09/25 08:08:27;;;;;;;30.55;21.83;;;;;;;17.06;76.75;101024.53;5034713;28;20049;-58
2021/09/25 08:10:54;;;;;;;31.77;21.77;;;;;;;17.08;77.13;101019.44;5033842;28;20057;-56
2021/09/25 08:13:22;;;;;;;28.50;21.40;;;;;;;17.25;76.99;101018.34;5033950;28;20080;-59
2021/09/25 08:15:50;;;;;;;29.85;22.15;;;;;;;17.70;75.75;101011.41;5032063;28;20061;-58
2021/09/25 08:18:18;;;;;;;31.10;23.60;;;;;;;18.05;73.42;101008.00;5031272;28;20381;-59
2021/09/25 08:20:45;;;;;;;31.15;21.75;;;;;;;18.27;71.86;101002.63;5034853;28;20060;-56
2021/09/25 08:23:13;;;;;;;32.08;22.25;;;;;;;17.96;72.88;101006.19;5032902;28;20042;-60
2021/09/25 08:25:40;;;;;;;36.20;26.33;;;;;;;18.03;71.77;101010.34;5034163;28;20054;-61
2021/09/25 08:28:07;;;;;;;40.92;28.80;;;;;;;18.00;72.61;101000.72;5016719;28;20049;-57
2021/09/25 08:30:35;;;;;;;36.67;27.38;;;;;;;18.17;71.95;101008.75;5033637;28;20041;-58
2021/09/25 08:33:02;;;;;;;36.90;25.70;;;;;;;18.08;71.17;101008.09;5033665;28;20444;-56
2021/09/25 08:35:30;;;;;;;39.97;28.02;;;;;;;18.17;71.31;101007.91;5030399;28;20049;-59
2021/09/25 08:37:58;;;;;;;34.58;28.02;;;;;;;17.89;70.98;101010.75;5033790;28;20049;-58
2021/09/25 08:40:25;;;;;;;37.42;27.02;;;;;;;17.85;71.33;101005.06;5045594;28;20587;-57
2021/09/25 08:42:53;;;;;;;43.08;27.85;;;;;;;17.72;71.94;101002.69;5033094;28;20062;-58
2021/09/25 08:45:22;;;;;;;35.13;26.70;;;;;;;17.87;71.78;100994.38;5034673;28;20061;-61
2021/09/25 08:47:55;;;;;;;34.65;26.17;;;;;;;17.65;71.76;100996.91;5033379;28;20049;-59
2021/09/25 08:50:23;;;;;;;29.17;24.63;;;;;;;17.58;72.13;101003.09;5033147;28;20510;-60
2021/09/25 08:52:51;;;;;;;30.52;23.70;;;;;;;18.07;72.37;100998.13;5034193;28;20061;-59
2021/09/25 08:55:18;;;;;;;29.63;23.67;;;;;;;18.42;70.31;100999.09;5033623;28;20046;-61
2021/09/25 08:57:45;;;;;;;30.10;21.92;;;;;;;18.75;69.14;100998.72;5030041;28;20056;-59
2021/09/25 09:00:35;;;;;;;30.52;23.75;;;;;;;18.62;68.60;100988.84;5037006;28;20063;-65
2021/09/25 09:03:30;;;;;;;30.27;23.10;;;;;;;18.40;68.63;100993.06;5036450;28;20061;-66
2021/09/25 09:06:16;;;;;;;28.20;22.38;;;;;;;18.71;68.29;100998.63;5038735;28;20046;-62
2021/09/25 09:08:47;;;;;;;27.35;21.65;;;;;;;19.14;66.70;100982.91;5036856;28;20049;-59
2021/09/25 09:11:16;;;;;;;27.35;20.05;;;;;;;18.99;67.01;100993.75;5034622;28;20053;-66
2021/09/25 09:13:46;;;;;;;25.03;19.77;;;;;;;19.27;66.70;100999.16;5040171;28;20057;-63
2021/09/25 09:16:15;;;;;;;31.58;20.58;;;;;;;19.47;66.36;101003.66;5033508;28;20057;-68
2021/09/25 09:18:44;;;;;;;23.92;19.15;;;;;;;19.48;64.16;101002.47;5051831;28;20046;-68
2021/09/25 09:21:25;;;;;;;23.53;17.27;;;;;;;19.69;64.98;101008.50;5037850;28;20388;-61
2021/09/25 09:23:58;;;;;;;22.35;16.27;;;;;;;19.74;63.27;100999.00;5037771;28;20296;-68
2021/09/25 09:26:28;;;;;;;22.30;16.95;;;;;;;19.48;64.12;101015.63;5035353;28;20064;-66
2021/09/25 09:28:57;;;;;;;26.30;16.35;;;;;;;19.39;64.63;101006.63;5036903;28;20049;-68
2021/09/25 09:31:25;;;;;;;23.42;17.30;;;;;;;19.45;64.31;100999.59;5038053;28;20045;-62
2021/09/25 09:34:00;;;;;;;23.30;17.35;;;;;;;19.18;64.06;101001.34;5037430;28;20057;-60
2021/09/25 09:36:29;;;;;;;24.33;16.70;;;;;;;19.55;64.48;100996.22;5037721;28;20050;-67
2021/09/25 09:39:11;;;;;;;21.38;16.90;;;;;;;19.54;62.69;100997.41;5036563;28;20081;-61
2021/09/25 09:41:43;;;;;;;23.60;16.80;;;;;;;19.80;63.54;100995.56;5036731;28;20065;-61
2021/09/25 09:44:13;;;;;;;22.55;15.80;;;;;;;19.80;63.80;100994.75;5037476;28;20056;-62
2021/09/25 09:46:53;;;;;;;23.15;16.35;;;;;;;20.00;61.89;100985.16;5037257;28;20063;-61
2021/09/25 09:49:27;;;;;;;22.15;16.80;;;;;;;19.88;62.64;100972.16;5037538;28;20121;-61
2021/09/25 09:52:05;;;;;;;19.05;16.15;;;;;;;20.03;62.62;100971.25;5035466;28;20057;-67
2021/09/25 09:54:38;;;;;;;19.17;15.90;;;;;;;19.80;61.76;100964.81;5035822;28;20060;-69
2021/09/25 09:57:10;;;;;;;17.42;14.20;;;;;;;19.65;62.20;100965.69;5034870;28;20049;-60
2021/09/25 09:59:39;;;;;;;21.60;15.18;;;;;;;19.73;62.33;100973.06;5032303;28;20052;-67
2021/09/25 10:02:07;;;;;;;19.55;14.60;;;;;;;19.70;61.86;100973.78;5032948;28;20053;-61
2021/09/25 10:04:35;;;;;;;13.93;10.50;;;;;;;20.26;63.70;100978.91;5034608;28;20041;-39
2021/09/25 10:07:04;;;;;;;14.98;10.70;;;;;;;20.96;60.59;100969.69;5035902;28;20048;-39
2021/09/25 10:09:33;;;;;;;16.73;10.95;;;;;;;21.39;59.69;100979.53;5037759;28;20053;-45
2021/09/25 10:12:03;;;;;;;16.07;10.57;;;;;;;21.63;58.32;100962.22;5036592;28;20041;-39
2021/09/25 10:14:33;;;;;;;12.77;10.00;;;;;;;21.71;57.62;100963.94;5025719;28;20054;-48
2021/09/25 10:17:02;;;;;;;11.90;9.85;;;;;;;21.82;57.05;100964.09;5033009;28;20073;-45
2021/09/25 10:19:31;;;;;;;16.23;10.45;;;;;;;21.89;56.62;100964.97;5035007;28;20056;-40
2021/09/25 10:22:07;;;;;;;14.63;9.48;;;;;;;21.93;56.35;100962.22;5035669;28;20042;-44
2021/09/25 10:24:46;;;;;;;16.20;10.27;;;;;;;21.95;56.04;100965.44;5019297;28;20052;-43
2021/09/25 10:27:14;;;;;;;12.57;9.43;;;;;;;22.00;56.42;100960.28;5042222;28;20053;-43
2021/09/25 10:29:47;;;;;;;13.00;9.15;;;;;;;22.02;56.03;100962.72;5019798;28;20052;-48
2021/09/25 10:32:44;;;;;;;14.75;10.52;;;;;;;22.06;55.95;100967.16;5017853;28;20057;-47
2021/09/25 10:35:19;;;;;;;14.60;9.77;;;;;;;22.05;56.02;100965.56;5036596;28;20049;-46
2021/09/25 10:38:04;;;;;;;17.27;9.70;;;;;;;22.03;55.75;100967.94;5024092;28;20539;-39
2021/09/25 10:40:52;;;;;;;17.88;11.40;;;;;;;22.06;56.77;100960.72;5039859;28;20069;-47
2021/09/25 10:43:26;;;;;;;18.25;11.60;;;;;;;22.11;56.26;100954.78;5045977;28;20042;-39
2021/09/25 10:45:57;;;;;;;16.63;10.25;;;;;;;22.08;56.12;100949.94;5035683;28;20064;-39
2021/09/25 10:48:29;;;;;;;15.20;10.43;;;;;;;22.10;55.36;100950.38;5051141;28;20049;-51
2021/09/25 10:51:00;;;;;;;13.55;9.80;;;;;;;22.13;56.18;100944.78;5034604;28;20056;-45
2021/09/25 10:53:32;;;;;;;12.45;9.73;;;;;;;22.13;55.58;100938.38;5036164;28;20057;-48
2021/09/25 10:56:03;;;;;;;16.30;9.57;;;;;;;22.15;55.67;100930.38;5017982;28;20057;-39
2021/09/25 10:58:35;;;;;;;11.98;8.68;;;;;;;22.18;55.15;100923.97;5036524;28;20053;-39
2021/09/25 11:01:09;;;;;;;13.20;8.60;;;;;;;22.13;54.96;100927.94;5034616;28;20057;-45
2021/09/25 11:03:40;;;;;;;12.80;9.43;;;;;;;22.07;55.44;100923.88;5018513;28;20060;-46
2021/09/25 11:06:27;;;;;;;13.77;9.80;;;;;;;22.07;54.10;100918.25;5036318;28;20049;-39
2021/09/25 11:08:54;;;;;;;14.55;9.18;;;;;;;22.03;55.57;100919.44;5035918;28;20046;-48
2021/09/25 11:11:31;;;;;;;11.57;8.55;;;;;;;22.06;54.70;100915.84;5033385;28;20049;-40
2021/09/25 11:14:01;;;;;;;16.45;9.40;;;;;;;22.07;54.84;100912.66;5032862;28;20056;-46
2021/09/25 11:17:00;;;;;;;13.30;10.15;;;;;;;22.19;54.40;100900.34;5035772;28;20054;-50